Impacts TAF Board
For situational awareness. Not to be used for flight planning purposes.
IDs:

KLAS - Las Vegas/McCarran I, NV, US

Issued at 2054 UTC 19 May 2019
Updated at 2118 UTC 19 May 2019
Potential Impact None Slight Moderate High
Time2056Z 19/22Z 19/23Z 20/00Z 20/01Z 20/02Z 20/03Z 20/04Z 20/05Z 20/06Z 20/07Z 20/08Z 20/09Z 20/10Z>>
Type OBS PRVL PRVL PRVL PRVL PRVL PRVL PRVL PRVL PRVL PRVL PRVL PRVL PRVL
VIS 10 >6 >6 >6 >6 >6 >6 >6 >6 >6 >6 >6 >6 >6
CIG -- -- -- -- -- -- -- -- -- -- -- -- -- 100
Cover SCT SCT SCT SCT SCT SCT SCT SCT SCT SCT SCT SCT SCT BKN
FltCat VFR VFR VFR VFR VFR VFR VFR VFR VFR VFR VFR VFR VFR VFR
WX -- -- -- -- -- -- -- -- -- -- -- -- -- --
WDir 220 220 220 220 220 220 220 220 220 220 220 220 220 260
WSpd 20 25 25 25 25 25 25 25 25 25 25 25 25 10
WGst 29 35 35 35 35 35 35 35 35 35 35 35 35 18
Raw TAF
KLAS 192054Z 1921/2024 22025G35KT P6SM FEW070 SCT120
  FM201000 26010G18KT P6SM BKN100
  FM201300 36007KT P6SM BKN070
  FM202200 24012G20KT P6SM SCT200


Raw METAR
KLAS 192056Z 22020G29KT 10SM FEW100 SCT160 22/M01 A2962 RMK AO2 PK WND 20033/2013 SLP011 T02221006 58007 $
KLAS 191956Z 22023G30KT 10SM FEW080 FEW100 SCT160 22/M01 A2963 RMK AO2 PK WND 22031/1941 SLP017 T02171006 $
KLAS 191856Z 24016G26KT 10SM FEW080 FEW100 SCT160 21/01 A2966 RMK AO2 PK WND 21036/1809 SLP024 T02110006 $

METAR Board
Radar Display
Forecast Discussion
For situational awareness. Not to be used for flight planning purposes.